createdAt,value
2019-05-17T00:01:48.565Z,28.27
2019-05-17T00:04:27.000Z,25.52
2019-05-17T00:07:06.601Z,32.50
2019-05-17T00:09:44.075Z,30.40
2019-05-17T00:12:21.464Z,31.15
2019-05-17T00:15:00.414Z,39.18
2019-05-17T00:17:38.240Z,38.00
2019-05-17T00:20:31.796Z,33.25
2019-05-17T00:23:09.400Z,38.83
2019-05-17T00:25:47.002Z,38.78
2019-05-17T00:28:26.900Z,42.13
2019-05-17T00:31:06.639Z,42.40
2019-05-17T00:33:43.790Z,40.55
2019-05-17T00:36:21.194Z,36.50
2019-05-17T00:38:58.462Z,35.20
2019-05-17T00:41:37.524Z,38.92
2019-05-17T00:44:16.813Z,28.85
2019-05-17T00:46:58.645Z,30.85
2019-05-17T00:49:34.314Z,32.67
2019-05-17T00:52:11.892Z,32.28
2019-05-17T00:54:49.134Z,38.95
2019-05-17T00:57:27.356Z,42.35
2019-05-17T01:00:08.576Z,42.13
2019-05-17T01:02:46.890Z,42.95
2019-05-17T01:05:24.318Z,48.90
2019-05-17T01:08:02.139Z,70.42
2019-05-17T01:10:39.701Z,50.40
2019-05-17T01:13:17.503Z,84.92
2019-05-17T01:15:56.620Z,57.13
2019-05-17T01:18:47.046Z,61.42
2019-05-17T01:21:26.188Z,78.37
2019-05-17T01:24:17.076Z,66.80
2019-05-17T01:26:53.691Z,82.60
2019-05-17T01:29:30.977Z,61.13
2019-05-17T01:32:08.325Z,67.32
2019-05-17T01:34:49.483Z,62.60
2019-05-17T01:37:27.693Z,69.77
2019-05-17T01:40:06.756Z,68.28
2019-05-17T01:42:46.574Z,60.88
2019-05-17T01:45:24.274Z,73.35
2019-05-17T01:48:01.672Z,61.35
2019-05-17T01:50:39.055Z,67.62
2019-05-17T01:53:16.706Z,63.85
2019-05-17T01:55:56.664Z,66.07
2019-05-17T01:58:33.437Z,67.10
2019-05-17T02:01:22.658Z,62.08
2019-05-17T02:03:59.953Z,64.45
2019-05-17T02:06:48.710Z,62.00
2019-05-17T02:09:41.597Z,59.65
2019-05-17T02:12:17.361Z,61.92
2019-05-17T02:14:57.377Z,62.13
2019-05-17T02:17:34.305Z,63.17
2019-05-17T02:20:11.996Z,59.10
2019-05-17T02:22:49.648Z,57.75
2019-05-17T02:25:28.494Z,63.45
2019-05-17T02:28:05.907Z,59.42
2019-05-17T02:30:55.388Z,66.07
2019-05-17T02:33:34.349Z,84.22
2019-05-17T02:36:14.116Z,140.90
2019-05-17T02:38:53.173Z,70.20
2019-05-17T02:41:33.075Z,113.32
2019-05-17T02:44:12.750Z,80.32
2019-05-17T02:46:49.465Z,87.12
2019-05-17T02:49:26.966Z,92.22
2019-05-17T02:52:04.416Z,126.53
2019-05-17T02:54:43.727Z,175.55
2019-05-17T02:57:34.701Z,142.10
2019-05-17T03:02:53.659Z,174.07
2019-05-17T03:05:33.410Z,303.98
2019-05-17T03:08:08.703Z,130.30
2019-05-17T03:10:46.495Z,117.80
2019-05-17T03:13:24.362Z,97.37
2019-05-17T03:16:03.430Z,129.25
2019-05-17T03:18:43.765Z,155.40
2019-05-17T03:21:22.908Z,150.90
2019-05-17T03:24:02.907Z,103.50
2019-05-17T03:26:42.708Z,92.37
2019-05-17T03:29:19.085Z,102.40
2019-05-17T03:32:00.602Z,100.90
2019-05-17T03:34:44.932Z,101.95
2019-05-17T03:37:25.847Z,95.67
2019-05-17T03:40:04.615Z,84.32
2019-05-17T03:42:39.283Z,89.40
2019-05-17T03:45:16.887Z,76.70
2019-05-17T03:47:55.115Z,81.22
2019-05-17T03:50:33.710Z,79.82
2019-05-17T03:53:13.164Z,74.37
2019-05-17T03:55:53.765Z,71.10
2019-05-17T03:58:33.005Z,71.35
2019-05-17T04:01:08.820Z,69.37
2019-05-17T04:03:48.097Z,66.75
2019-05-17T04:06:27.360Z,67.03
2019-05-17T04:09:06.865Z,67.97
2019-05-17T04:11:55.569Z,60.67
2019-05-17T04:14:33.557Z,69.90
2019-05-17T04:17:13.152Z,68.72
2019-05-17T04:19:53.170Z,68.65
2019-05-17T04:22:29.401Z,77.12
2019-05-17T04:25:13.092Z,74.42
2019-05-17T04:27:48.887Z,69.50
2019-05-17T04:30:26.377Z,72.08
2019-05-17T04:33:04.308Z,75.42
2019-05-17T04:35:43.191Z,80.47
2019-05-17T04:38:23.631Z,73.45
2019-05-17T04:41:03.250Z,62.08
2019-05-17T04:43:42.261Z,106.58
2019-05-17T04:46:18.582Z,90.67
2019-05-17T04:48:56.461Z,84.75
2019-05-17T04:51:34.477Z,107.75
2019-05-17T04:54:13.653Z,78.97
2019-05-17T04:56:53.218Z,164.65
2019-05-17T04:59:33.715Z,158.60
2019-05-17T05:02:12.933Z,93.03
2019-05-17T05:04:48.985Z,192.95
2019-05-17T05:07:26.845Z,106.00
2019-05-17T05:10:04.553Z,84.28
2019-05-17T05:12:44.438Z,72.70
2019-05-17T05:15:43.363Z,136.50
2019-05-17T05:18:22.147Z,137.05
2019-05-17T05:20:59.638Z,164.77
2019-05-17T05:23:37.055Z,153.50
2019-05-17T05:26:14.263Z,105.67
2019-05-17T05:28:52.913Z,75.30
2019-05-17T05:31:32.131Z,109.55
2019-05-17T05:34:12.173Z,80.03
2019-05-17T05:36:49.174Z,70.12
2019-05-17T05:39:26.490Z,52.10
2019-05-17T05:42:07.904Z,67.85
2019-05-17T05:44:43.017Z,68.80
2019-05-17T05:47:22.066Z,55.73
2019-05-17T05:50:01.654Z,111.68
2019-05-17T05:52:42.173Z,75.75
2019-05-17T05:55:23.160Z,134.90
2019-05-17T05:57:59.656Z,66.30
2019-05-17T06:00:37.066Z,59.60
2019-05-17T06:03:15.964Z,60.85
2019-05-17T06:05:53.418Z,52.62
2019-05-17T06:08:32.292Z,54.70
2019-05-17T06:11:12.296Z,67.45
2019-05-17T06:13:52.394Z,52.50
2019-05-17T06:16:31.961Z,58.00
2019-05-17T06:19:08.800Z,59.98
2019-05-17T06:21:46.113Z,61.73
2019-05-17T06:24:24.171Z,66.42
2019-05-17T06:27:02.030Z,68.05
2019-05-17T06:29:41.481Z,58.87
2019-05-17T06:32:18.365Z,57.25
2019-05-17T06:34:55.718Z,59.00
2019-05-17T06:37:32.915Z,66.85
2019-05-17T06:40:12.695Z,52.98
2019-05-17T06:42:49.498Z,61.20
2019-05-17T06:45:27.021Z,58.98
2019-05-17T06:48:05.425Z,54.38
2019-05-17T06:50:43.314Z,51.08
2019-05-17T06:53:21.935Z,55.33
2019-05-17T06:56:02.659Z,47.30
2019-05-17T06:58:39.577Z,50.28
2019-05-17T07:01:16.926Z,50.70
2019-05-17T07:03:54.533Z,51.48
2019-05-17T07:06:33.590Z,49.48
2019-05-17T07:09:11.201Z,46.53
2019-05-17T07:11:48.439Z,40.48
2019-05-17T07:14:26.237Z,46.45
2019-05-17T07:17:03.545Z,46.50
2019-05-17T07:19:40.749Z,39.30
2019-05-17T07:22:21.011Z,48.70
2019-05-17T07:24:59.774Z,42.58
2019-05-17T07:27:41.724Z,40.43
2019-05-17T07:30:19.531Z,36.58
2019-05-17T07:35:33.260Z,37.05
2019-05-17T07:38:10.923Z,38.85
2019-05-17T07:40:50.200Z,33.70
2019-05-17T07:43:29.892Z,31.25
2019-05-17T07:46:09.615Z,37.17
2019-05-17T07:48:49.620Z,39.42
2019-05-17T07:51:26.900Z,36.40
2019-05-17T07:54:04.167Z,42.38
2019-05-17T07:56:41.542Z,41.23
2019-05-17T07:59:19.985Z,41.35
2019-05-17T08:02:10.630Z,42.38
2019-05-17T08:04:50.045Z,40.85
2019-05-17T08:07:26.907Z,47.78
2019-05-17T08:10:05.272Z,51.28
2019-05-17T08:12:42.529Z,55.55
2019-05-17T08:15:20.089Z,47.70
2019-05-17T08:17:59.357Z,47.30
2019-05-17T08:20:36.420Z,49.00
2019-05-17T08:23:13.611Z,41.02
2019-05-17T08:25:55.676Z,35.43
2019-05-17T08:28:31.336Z,41.18
2019-05-17T08:31:09.884Z,34.13
2019-05-17T08:33:49.669Z,35.10
2019-05-17T08:36:26.330Z,38.28
2019-05-17T08:39:04.055Z,36.63
2019-05-17T08:41:41.904Z,39.60
2019-05-17T08:44:19.310Z,37.33
2019-05-17T08:46:56.769Z,35.35
2019-05-17T08:49:34.525Z,35.40
2019-05-17T08:52:12.357Z,38.15
2019-05-17T08:54:49.781Z,32.50
2019-05-17T08:57:30.055Z,31.35
2019-05-17T09:00:10.149Z,27.87
2019-05-17T09:02:46.517Z,30.68
2019-05-17T09:05:25.901Z,32.78
2019-05-17T09:08:03.240Z,29.70
2019-05-17T09:10:41.211Z,35.70
2019-05-17T09:13:19.546Z,31.77
2019-05-17T09:16:00.028Z,27.98
2019-05-17T09:18:39.283Z,31.57
2019-05-17T09:21:15.988Z,30.70
2019-05-17T09:23:54.366Z,29.10
2019-05-17T09:26:32.137Z,26.07
2019-05-17T09:29:10.801Z,32.60
2019-05-17T09:31:50.456Z,30.10
2019-05-17T09:34:29.959Z,27.15
2019-05-17T09:37:09.707Z,32.03
2019-05-17T09:39:46.280Z,26.27
2019-05-17T09:42:25.321Z,35.98
2019-05-17T09:45:02.628Z,32.00
2019-05-17T09:47:40.070Z,34.88
2019-05-17T09:50:17.222Z,30.23
2019-05-17T09:52:54.718Z,31.30
2019-05-17T09:55:32.314Z,29.75
2019-05-17T09:58:10.162Z,32.35
2019-05-17T10:00:49.533Z,32.15
2019-05-17T10:03:27.043Z,29.82
2019-05-17T10:06:04.753Z,38.05
2019-05-17T10:08:44.597Z,34.60
2019-05-17T10:11:21.705Z,32.38
2019-05-17T10:14:01.328Z,22.93
2019-05-17T10:16:38.173Z,23.32
2019-05-17T10:19:15.665Z,27.00
2019-05-17T10:21:52.751Z,23.73
2019-05-17T10:24:38.092Z,23.52
2019-05-17T10:27:22.104Z,21.93
2019-05-17T10:29:59.474Z,24.32
2019-05-17T10:32:40.461Z,22.50
2019-05-17T10:35:16.378Z,24.98
2019-05-17T10:37:53.657Z,22.30
2019-05-17T10:40:31.182Z,22.02
2019-05-17T10:43:10.100Z,22.70
2019-05-17T10:45:47.832Z,22.22
2019-05-17T10:48:25.548Z,25.62
2019-05-17T10:51:03.077Z,24.60
2019-05-17T10:53:42.298Z,23.12
2019-05-17T10:56:22.969Z,21.23
2019-05-17T10:59:00.132Z,22.50
2019-05-17T11:01:38.036Z,23.98
2019-05-17T11:04:15.903Z,23.92
2019-05-17T11:06:53.242Z,19.57
2019-05-17T11:09:31.269Z,19.62
2019-05-17T11:12:08.906Z,25.25
2019-05-17T11:14:55.809Z,21.85
2019-05-17T11:17:25.460Z,23.32
2019-05-17T11:20:03.527Z,18.92
2019-05-17T11:22:40.968Z,17.73
2019-05-17T11:25:19.537Z,16.55
2019-05-17T11:28:09.141Z,18.82
2019-05-17T11:30:46.614Z,16.67
2019-05-17T11:33:23.841Z,18.35
2019-05-17T11:36:01.648Z,24.70
2019-05-17T11:38:39.542Z,21.23
2019-05-17T11:41:21.436Z,18.67
2019-05-17T11:43:57.150Z,26.80
2019-05-17T11:46:36.439Z,19.07
2019-05-17T11:49:14.694Z,19.67
2019-05-17T11:51:51.979Z,21.55
2019-05-17T11:54:29.289Z,15.72
2019-05-17T11:57:08.558Z,16.30
2019-05-17T11:59:45.825Z,18.20
2019-05-17T12:02:35.399Z,20.12
2019-05-17T12:05:13.363Z,17.02
2019-05-17T12:07:50.840Z,14.53
2019-05-17T12:10:28.352Z,12.33
2019-05-17T12:13:06.029Z,23.40
2019-05-17T12:15:45.323Z,14.75
2019-05-17T12:18:22.406Z,18.02
2019-05-17T12:20:59.905Z,17.37
2019-05-17T12:23:37.801Z,19.27
2019-05-17T12:26:15.450Z,13.75
2019-05-17T12:28:52.770Z,17.20
2019-05-17T12:31:30.923Z,15.08
2019-05-17T12:34:20.415Z,16.35
2019-05-17T12:36:57.779Z,12.65
2019-05-17T12:39:35.292Z,13.22
2019-05-17T12:42:12.748Z,12.15
2019-05-17T12:44:50.510Z,16.73
2019-05-17T12:47:28.094Z,11.12
2019-05-17T12:50:05.877Z,10.60
2019-05-17T12:52:43.701Z,18.02
2019-05-17T12:55:21.112Z,18.87
2019-05-17T12:57:58.428Z,14.47
2019-05-17T13:00:35.779Z,13.03
2019-05-17T13:03:13.538Z,13.03
2019-05-17T13:05:50.888Z,10.98
2019-05-17T13:08:28.133Z,17.32
2019-05-17T13:11:05.526Z,15.58
2019-05-17T13:13:43.249Z,19.07
2019-05-17T13:16:20.631Z,10.93
2019-05-17T13:18:59.316Z,16.20
2019-05-17T13:21:37.451Z,11.88
2019-05-17T13:24:15.071Z,13.32
2019-05-17T13:26:52.520Z,11.83
2019-05-17T13:29:29.843Z,9.78
2019-05-17T13:32:07.255Z,14.75
2019-05-17T13:34:44.535Z,10.10
2019-05-17T13:37:22.039Z,9.13
2019-05-17T13:39:59.781Z,12.15
2019-05-17T13:42:37.116Z,9.10
2019-05-17T13:45:16.192Z,12.82
2019-05-17T13:47:53.473Z,13.70
2019-05-17T13:50:32.368Z,14.53
2019-05-17T13:53:10.010Z,12.55
2019-05-17T13:55:47.313Z,11.22
2019-05-17T13:58:27.225Z,14.98
2019-05-17T14:01:16.098Z,13.32
2019-05-17T14:03:53.955Z,18.92
2019-05-17T14:06:31.294Z,13.60
2019-05-17T14:09:08.528Z,19.30
2019-05-17T14:11:47.741Z,15.25
2019-05-17T14:14:24.907Z,15.98
2019-05-17T14:17:02.582Z,17.48
2019-05-17T14:19:40.160Z,14.10
2019-05-17T14:22:17.441Z,13.30
2019-05-17T14:24:54.630Z,13.95
2019-05-17T14:27:31.988Z,13.43
2019-05-17T14:30:10.932Z,12.90
2019-05-17T14:32:48.291Z,14.70
2019-05-17T14:35:25.463Z,14.13
2019-05-17T14:38:03.111Z,14.03
2019-05-17T14:41:04.886Z,14.40
2019-05-17T14:43:19.949Z,13.60
2019-05-17T14:45:57.583Z,15.80
2019-05-17T14:48:35.432Z,14.33
2019-05-17T14:51:12.876Z,6.90
2019-05-17T14:53:50.542Z,6.58
2019-05-17T14:56:29.129Z,7.83
2019-05-17T14:59:06.557Z,6.67
2019-05-17T15:01:43.884Z,4.92
2019-05-17T15:04:21.460Z,6.78
2019-05-17T15:07:00.045Z,24.23
2019-05-17T15:09:37.684Z,20.60
2019-05-17T15:12:27.859Z,16.60
2019-05-17T15:14:54.670Z,15.13
2019-05-17T15:17:35.157Z,18.40
2019-05-17T15:20:13.877Z,22.52
2019-05-17T15:22:51.314Z,16.10
2019-05-17T15:25:29.232Z,20.05
2019-05-17T15:28:07.587Z,19.20
2019-05-17T15:30:45.214Z,16.93
2019-05-17T15:33:22.639Z,15.68
2019-05-17T15:36:00.271Z,9.90
2019-05-17T15:38:38.135Z,14.33
2019-05-17T15:41:15.560Z,18.00
2019-05-17T15:43:53.247Z,13.53
2019-05-17T15:46:32.132Z,12.58
2019-05-17T15:49:10.761Z,16.80
2019-05-17T15:51:48.437Z,16.32
2019-05-17T15:54:25.884Z,20.17
2019-05-17T15:57:03.420Z,20.20
2019-05-17T15:59:40.807Z,17.87
2019-05-17T16:02:18.073Z,23.83
2019-05-17T16:04:55.516Z,20.00
2019-05-17T16:07:33.122Z,25.43
2019-05-17T16:10:12.769Z,19.07
2019-05-17T16:13:01.750Z,18.73
2019-05-17T16:15:29.464Z,17.00
2019-05-17T16:18:07.167Z,17.87
2019-05-17T16:20:44.510Z,23.67
2019-05-17T16:23:22.094Z,32.03
2019-05-17T16:25:59.692Z,25.77
2019-05-17T16:28:37.191Z,30.17
2019-05-17T16:31:14.995Z,34.10
2019-05-17T16:33:52.924Z,33.30
2019-05-17T16:36:31.938Z,34.65
2019-05-17T16:39:09.989Z,27.90
2019-05-17T16:41:47.214Z,30.02
2019-05-17T16:44:24.893Z,28.95
2019-05-17T16:47:02.389Z,24.52
2019-05-17T16:49:40.678Z,23.47
2019-05-17T16:52:18.414Z,25.45
2019-05-17T16:54:57.014Z,25.60
2019-05-17T16:57:38.327Z,26.17
2019-05-17T17:00:45.136Z,30.37
2019-05-17T17:03:22.585Z,30.30
2019-05-17T17:05:59.950Z,30.62
2019-05-17T17:08:37.873Z,31.90
2019-05-17T17:11:15.516Z,32.50
2019-05-17T17:13:52.971Z,29.35
2019-05-17T17:16:31.173Z,27.48
2019-05-17T17:19:09.078Z,27.05
2019-05-17T17:21:46.444Z,33.63
2019-05-17T17:24:23.913Z,37.20
2019-05-17T17:27:13.801Z,36.65
2019-05-17T17:29:51.099Z,40.08
2019-05-17T17:32:28.693Z,36.75
2019-05-17T17:35:07.090Z,37.08
2019-05-17T17:37:44.888Z,37.40
2019-05-17T17:40:23.878Z,39.70
2019-05-17T17:43:03.819Z,40.28
2019-05-17T17:45:42.160Z,37.40
2019-05-17T17:48:20.102Z,40.75
2019-05-17T17:50:58.194Z,39.55
2019-05-17T17:53:35.808Z,42.33
2019-05-17T17:56:13.839Z,40.90
2019-05-17T17:58:52.841Z,46.50
2019-05-17T18:01:31.510Z,55.28
2019-05-17T18:04:09.355Z,50.63
2019-05-17T18:06:47.125Z,48.08
2019-05-17T18:09:26.084Z,46.70
2019-05-17T18:12:04.311Z,45.52
2019-05-17T18:14:41.625Z,52.67
2019-05-17T18:17:19.819Z,53.95
2019-05-17T18:19:57.966Z,58.23
2019-05-17T18:22:35.418Z,63.02
2019-05-17T18:25:13.117Z,66.25
2019-05-17T18:27:50.902Z,62.33
2019-05-17T18:30:28.450Z,62.03
2019-05-17T18:33:06.467Z,66.67
2019-05-17T18:35:44.477Z,64.72
2019-05-17T18:38:25.618Z,74.80
2019-05-17T18:41:03.804Z,78.42
2019-05-17T18:43:41.623Z,80.10
2019-05-17T18:46:19.146Z,77.25
2019-05-17T18:48:57.343Z,80.97
2019-05-17T18:51:34.902Z,84.97
2019-05-17T18:54:14.585Z,80.42
2019-05-17T18:56:52.510Z,86.08
2019-05-17T18:59:30.373Z,90.65
2019-05-17T19:02:10.193Z,80.47
2019-05-17T19:04:48.065Z,89.40
2019-05-17T19:07:25.985Z,94.75
2019-05-17T19:10:04.259Z,93.55
2019-05-17T19:12:42.384Z,96.40
2019-05-17T19:15:20.317Z,112.40
2019-05-17T19:17:58.192Z,105.35
2019-05-17T19:20:36.131Z,104.90
2019-05-17T19:23:14.605Z,98.67
2019-05-17T19:25:52.451Z,105.43
2019-05-17T19:28:30.213Z,114.10
2019-05-17T19:31:09.271Z,85.00
2019-05-17T19:33:46.659Z,83.10
2019-05-17T19:36:24.109Z,87.97
2019-05-17T19:39:04.910Z,94.40
2019-05-17T19:41:44.835Z,81.08
2019-05-17T19:44:22.514Z,86.57
2019-05-17T19:46:59.960Z,110.97
2019-05-17T19:49:37.451Z,89.13
2019-05-17T19:52:15.013Z,83.35
2019-05-17T19:54:53.077Z,89.60
2019-05-17T19:57:30.965Z,92.53
2019-05-17T20:00:09.443Z,76.77
2019-05-17T20:02:47.530Z,85.30
2019-05-17T20:05:24.843Z,78.42
2019-05-17T20:08:02.754Z,72.22
2019-05-17T20:10:40.200Z,79.72
2019-05-17T20:13:17.612Z,68.72
2019-05-17T20:15:55.207Z,76.17
2019-05-17T20:18:33.044Z,72.85
2019-05-17T20:21:10.638Z,67.67
2019-05-17T20:23:48.208Z,67.15
2019-05-17T20:26:25.941Z,74.62
2019-05-17T20:29:03.809Z,84.35
2019-05-17T20:31:41.635Z,73.62
2019-05-17T20:34:19.513Z,74.20
2019-05-17T20:36:57.115Z,92.50
2019-05-17T20:39:35.378Z,109.78
2019-05-17T20:42:13.356Z,107.05
2019-05-17T20:44:51.023Z,95.30
2019-05-17T20:47:28.637Z,113.88
2019-05-17T20:50:07.571Z,120.35
2019-05-17T20:52:45.685Z,120.82
2019-05-17T20:55:23.154Z,134.47
2019-05-17T20:58:00.763Z,120.40
2019-05-17T21:00:38.595Z,116.10
2019-05-17T21:03:17.647Z,113.75
2019-05-17T21:05:56.579Z,109.63
2019-05-17T21:08:45.793Z,114.97
2019-05-17T21:11:26.685Z,117.75
2019-05-17T21:14:04.545Z,115.05
2019-05-17T21:16:42.117Z,122.00
2019-05-17T21:19:20.124Z,120.50
2019-05-17T21:22:03.112Z,121.62
2019-05-17T21:24:40.882Z,115.35
2019-05-17T21:27:18.349Z,109.97
2019-05-17T21:29:56.268Z,120.57
2019-05-17T21:32:46.037Z,122.33
2019-05-17T21:35:24.025Z,127.07
2019-05-17T21:38:02.622Z,118.50
2019-05-17T21:40:39.952Z,107.50
2019-05-17T21:43:17.580Z,112.60
2019-05-17T21:46:04.086Z,117.05
2019-05-17T21:48:40.521Z,109.97
2019-05-17T21:51:18.641Z,76.45
2019-05-17T21:53:56.845Z,67.25
2019-05-17T21:56:36.404Z,64.90
2019-05-17T21:59:13.702Z,63.20
2019-05-17T22:01:52.366Z,82.12
2019-05-17T22:04:30.267Z,74.77
2019-05-17T22:07:08.347Z,89.37
2019-05-17T22:09:45.758Z,77.35
2019-05-17T22:12:23.044Z,83.35
2019-05-17T22:15:01.060Z,78.90
2019-05-17T22:17:39.362Z,74.90
2019-05-17T22:20:17.118Z,91.53
2019-05-17T22:22:58.074Z,91.17
2019-05-17T22:25:35.624Z,89.28
2019-05-17T22:28:12.942Z,87.10
2019-05-17T22:30:50.815Z,83.00
2019-05-17T22:33:28.787Z,87.92
2019-05-17T22:36:18.820Z,92.57
2019-05-17T22:38:56.519Z,91.08
2019-05-17T22:41:34.461Z,92.78
2019-05-17T22:44:11.964Z,84.45
2019-05-17T22:46:50.147Z,86.60
2019-05-17T22:49:39.885Z,85.00
2019-05-17T22:52:17.167Z,86.20
2019-05-17T22:54:54.793Z,96.97
2019-05-17T22:57:32.689Z,95.25
2019-05-17T23:00:10.885Z,95.55
2019-05-17T23:02:54.732Z,110.00
2019-05-17T23:05:44.357Z,105.50
2019-05-17T23:08:21.677Z,109.37
2019-05-17T23:10:59.523Z,134.63
2019-05-17T23:13:37.228Z,130.85
2019-05-17T23:16:17.798Z,121.15
2019-05-17T23:19:08.721Z,115.70
2019-05-17T23:21:47.815Z,143.60
2019-05-17T23:24:26.473Z,155.60
2019-05-17T23:27:04.200Z,236.10
2019-05-17T23:29:42.083Z,367.45
2019-05-17T23:32:19.876Z,390.32
2019-05-17T23:35:02.844Z,601.58
2019-05-17T23:37:40.851Z,555.22
2019-05-17T23:40:18.740Z,634.55
2019-05-17T23:42:57.613Z,657.08
2019-05-17T23:45:35.568Z,656.73
2019-05-17T23:48:13.265Z,710.33
2019-05-17T23:50:51.170Z,851.50
2019-05-17T23:53:29.234Z,750.27
2019-05-17T23:56:06.709Z,848.35
2019-05-17T23:58:44.418Z,739.58
